Time;durP1;ratioP1;P1;durP2;ratioP2;P2;SDS_P1;SDS_P2;PMS_P1;PMS_P2;Temp;Humidity;BMP_temperature;BMP_pressure;BME280_temperature;BME280_humidity;BME280_pressure;Samples;Min_cycle;Max_cycle;Signal;HPM_P1;HPM_P2
2022/06/12 04:01:02;;;;;;;2.38;0.82;;;16.00;84.30;;;;;;5989412;23;93574;31
2022/06/12 04:03:36;;;;;;;2.30;1.13;;;16.40;82.50;;;;;;4816398;29;92953;-80
2022/06/12 04:06:06;;;;;;;2.17;0.52;;;16.70;81.20;;;;;;4814641;29;91706;-81
2022/06/12 04:08:35;;;;;;;2.30;0.70;;;17.10;79.60;;;;;;4814959;29;91809;-82
2022/06/12 04:11:02;;;;;;;4.18;0.50;;;17.30;78.00;;;;;;4814592;29;91003;-82
2022/06/12 04:13:28;;;;;;;1.90;0.60;;;17.60;77.50;;;;;;4814015;29;92807;-82
2022/06/12 04:15:58;;;;;;;2.13;0.77;;;17.90;75.90;;;;;;4814613;29;91971;-80
2022/06/12 04:18:26;;;;;;;3.15;1.08;;;18.10;74.40;;;;;;4814770;29;92810;-83
2022/06/12 04:20:59;;;;;;;2.78;0.82;;;18.30;74.10;;;;;;4814040;29;92033;-81
2022/06/12 04:23:28;;;;;;;6.32;0.70;;;18.50;74.40;;;;;;4814298;29;92618;-81
2022/06/12 04:25:59;;;;;;;2.00;0.75;;;19.10;71.20;;;;;;4813676;29;92917;-81
2022/06/12 04:28:33;;;;;;;1.58;0.50;;;19.40;69.50;;;;;;4814531;29;91777;-81
2022/06/12 04:31:02;;;;;;;1.75;0.68;;;19.70;69.40;;;;;;4814372;29;91758;-82
2022/06/12 04:33:52;;;;;;;2.15;0.60;;;20.40;66.90;;;;;;4814256;29;91824;-82
2022/06/12 04:36:18;;;;;;;1.92;0.60;;;21.10;63.80;;;;;;4814975;29;91950;-82
2022/06/12 04:38:44;;;;;;;2.15;0.63;;;21.50;61.90;;;;;;4814727;29;91385;-80
2022/06/12 04:41:12;;;;;;;3.03;0.47;;;21.20;61.70;;;;;;4814679;29;92089;-81
2022/06/12 04:43:39;;;;;;;2.17;0.50;;;21.30;61.80;;;;;;4813588;29;93360;-80
2022/06/12 04:46:05;;;;;;;3.25;0.63;;;21.70;59.90;;;;;;4814213;29;93320;-80
2022/06/12 04:48:38;;;;;;;1.73;0.50;;;21.50;60.90;;;;;;4815223;29;91841;-80
2022/06/12 04:51:06;;;;;;;1.98;0.85;;;21.50;60.40;;;;;;4814758;29;91413;-81
2022/06/12 04:53:32;;;;;;;3.80;0.68;;;21.50;60.80;;;;;;4814150;29;92240;-81
2022/06/12 04:55:57;;;;;;;2.13;0.70;;;21.10;62.00;;;;;;4811670;29;91720;-79
2022/06/12 04:58:23;;;;;;;7.35;1.08;;;21.30;61.40;;;;;;4814184;29;91788;-80
2022/06/12 05:00:49;;;;;;;3.08;0.80;;;21.50;61.00;;;;;;4814937;29;91010;-80
2022/06/12 05:03:15;;;;;;;4.25;0.80;;;21.90;61.30;;;;;;4828423;29;92651;-79
2022/06/12 05:05:42;;;;;;;3.30;0.75;;;22.60;59.10;;;;;;4830832;29;92696;-79
2022/06/12 05:08:08;;;;;;;2.03;0.70;;;23.10;57.00;;;;;;4830536;29;92773;-79
2022/06/12 05:10:34;;;;;;;3.38;0.63;;;23.30;56.70;;;;;;4830942;29;91838;-79
2022/06/12 05:13:00;;;;;;;2.70;0.73;;;24.20;54.90;;;;;;4830111;29;92211;-79
2022/06/12 05:15:26;;;;;;;2.45;0.57;;;24.60;53.70;;;;;;4832822;29;91895;-82
2022/06/12 05:17:52;;;;;;;3.17;0.70;;;25.00;53.00;;;;;;4834691;29;91771;-82
2022/06/12 05:20:28;;;;;;;1.65;0.73;;;25.90;51.30;;;;;;4832361;29;91755;-80
2022/06/12 05:22:55;;;;;;;1.67;0.77;;;27.40;48.90;;;;;;4851241;29;92249;-81
2022/06/12 05:25:23;;;;;;;1.40;0.60;;;28.10;47.80;;;;;;4851454;29;91223;-81
2022/06/12 05:27:50;;;;;;;1.40;0.75;;;28.80;46.30;;;;;;4848792;29;91904;-82
2022/06/12 05:30:23;;;;;;;1.80;0.85;;;29.30;44.80;;;;;;4851338;29;91864;-82
2022/06/12 05:32:50;;;;;;;2.63;0.90;;;29.90;44.30;;;;;;4850523;29;92784;-80
2022/06/12 05:35:18;;;;;;;2.50;1.13;;;30.20;42.80;;;;;;4850469;29;93246;-80
2022/06/12 05:37:44;;;;;;;1.20;0.55;;;30.10;42.10;;;;;;4850967;29;91742;-81
2022/06/12 05:40:16;;;;;;;4.10;0.90;;;30.10;42.40;;;;;;4851002;29;91728;-80
2022/06/12 05:42:42;;;;;;;2.20;1.02;;;30.90;41.90;;;;;;4850557;29;93860;-80
2022/06/12 05:45:15;;;;;;;4.40;0.80;;;31.70;39.50;;;;;;4849372;29;92903;-80
2022/06/12 05:47:50;;;;;;;2.10;1.13;;;31.40;39.70;;;;;;4851730;29;91686;-79
2022/06/12 05:50:18;;;;;;;1.60;0.80;;;31.40;39.60;;;;;;4849852;29;91162;-79
2022/06/12 05:52:43;;;;;;;2.67;1.00;;;31.80;39.20;;;;;;4849024;29;91662;-79
2022/06/12 05:55:10;;;;;;;1.85;1.05;;;32.10;39.50;;;;;;4849250;29;93094;-79
2022/06/12 05:57:36;;;;;;;2.80;0.93;;;32.40;37.80;;;;;;4849198;29;92658;-79
2022/06/12 06:00:04;;;;;;;2.78;0.80;;;30.90;39.10;;;;;;4849438;29;91670;-79
2022/06/12 06:02:30;;;;;;;3.42;1.20;;;30.90;41.20;;;;;;4848583;29;96667;-79
2022/06/12 06:04:56;;;;;;;2.50;0.80;;;31.40;38.90;;;;;;4849235;29;92813;-79
2022/06/12 06:07:22;;;;;;;1.83;0.95;;;31.90;39.40;;;;;;4851290;29;91880;-80
2022/06/12 06:09:47;;;;;;;4.10;1.75;;;31.50;39.80;;;;;;4853356;29;91643;-79
2022/06/12 06:12:13;;;;;;;1.40;1.08;;;33.20;40.20;;;;;;4852942;29;92854;-79
2022/06/12 06:14:38;;;;;;;2.50;1.23;;;34.70;37.60;;;;;;4853625;29;91512;-80
2022/06/12 06:17:04;;;;;;;2.25;1.75;;;35.30;38.80;;;;;;4853600;29;91726;-79
2022/06/12 06:19:31;;;;;;;3.05;1.92;;;35.70;39.00;;;;;;4853634;29;92006;-79
2022/06/12 06:21:57;;;;;;;2.50;1.50;;;36.60;38.20;;;;;;4852022;29;94177;-79
2022/06/12 06:24:23;;;;;;;2.45;1.90;;;37.60;37.10;;;;;;4852605;29;91881;-79
2022/06/12 06:26:49;;;;;;;2.50;1.95;;;38.10;37.20;;;;;;4853971;29;91873;-80
2022/06/12 06:29:14;;;;;;;2.22;1.90;;;38.40;36.30;;;;;;4853438;29;91820;-79
2022/06/12 06:31:40;;;;;;;3.20;2.42;;;38.40;35.70;;;;;;4853672;29;92632;-79
2022/06/12 06:34:06;;;;;;;4.50;2.75;;;38.30;35.70;;;;;;4852076;29;94196;-79
2022/06/12 06:36:32;;;;;;;2.25;1.63;;;39.00;35.40;;;;;;4853896;29;91745;-79
2022/06/12 06:38:58;;;;;;;2.78;1.65;;;39.80;33.90;;;;;;4853913;29;90888;-79
2022/06/12 06:41:25;;;;;;;2.10;1.90;;;39.90;34.30;;;;;;4853969;29;91810;-79
2022/06/12 06:46:36;;;;;;;2.95;2.22;;;39.40;32.60;;;;;;4853463;29;92750;-79
2022/06/12 06:49:03;;;;;;;2.70;2.17;;;40.10;32.10;;;;;;4853748;29;92132;-79
2022/06/12 06:51:30;;;;;;;1.92;1.67;;;39.40;31.70;;;;;;4853442;29;93201;-79
2022/06/12 06:53:56;;;;;;;1.75;1.38;;;38.40;32.40;;;;;;4853118;29;92296;-79
2022/06/12 06:56:23;;;;;;;4.38;1.85;;;38.40;32.20;;;;;;4854286;29;91727;-79
2022/06/12 06:58:48;;;;;;;3.17;1.70;;;38.90;31.00;;;;;;4853929;29;91770;-79
2022/06/12 07:01:15;;;;;;;1.98;1.40;;;39.20;31.90;;;;;;4849695;29;92210;-79
2022/06/12 07:03:40;;;;;;;2.53;1.42;;;39.80;30.20;;;;;;4854098;29;91413;-79
2022/06/12 07:06:08;;;;;;;2.25;2.05;;;40.70;30.80;;;;;;4855692;29;91714;-80
2022/06/12 07:08:34;;;;;;;2.25;1.73;;;41.30;29.50;;;;;;4854992;29;91755;-80
2022/06/12 07:11:00;;;;;;;3.47;1.98;;;42.10;29.40;;;;;;4855615;29;94111;-81
2022/06/12 07:13:26;;;;;;;3.10;2.50;;;42.50;30.00;;;;;;4857503;29;92822;-81
2022/06/12 07:15:51;;;;;;;4.78;2.25;;;41.80;31.00;;;;;;4856593;29;91837;-81
2022/06/12 07:18:18;;;;;;;3.67;2.35;;;43.00;29.90;;;;;;4855274;29;92074;-81
2022/06/12 07:20:50;;;;;;;2.28;1.95;;;43.90;29.40;;;;;;4856177;29;92245;-81
2022/06/12 07:23:17;;;;;;;2.25;1.90;;;43.80;29.30;;;;;;4860337;29;91801;-81
2022/06/12 07:25:48;;;;;;;4.28;2.88;;;44.80;29.30;;;;;;4860760;29;91730;-82
2022/06/12 07:28:14;;;;;;;4.70;2.83;;;45.50;28.30;;;;;;4858008;29;91025;-81
2022/06/12 07:30:41;;;;;;;2.30;2.10;;;45.60;28.00;;;;;;4856136;29;91866;-81
2022/06/12 07:33:07;;;;;;;3.35;3.05;;;45.50;27.90;;;;;;4856264;29;92176;-81
2022/06/12 07:35:35;;;;;;;2.97;2.65;;;46.00;28.60;;;;;;4856197;29;92692;-81
2022/06/12 07:38:02;;;;;;;4.95;2.90;;;45.60;29.90;;;;;;4855582;29;91773;-81
2022/06/12 07:40:33;;;;;;;2.88;2.55;;;44.90;30.60;;;;;;4856351;29;92299;-80
2022/06/12 07:42:59;;;;;;;3.35;2.95;;;45.60;29.70;;;;;;4854373;29;93564;-79
2022/06/12 07:45:25;;;;;;;3.72;2.80;;;46.60;29.60;;;;;;4856447;29;91693;-79
2022/06/12 07:47:50;;;;;;;4.75;4.32;;;46.80;29.00;;;;;;4856225;29;91768;-82
2022/06/12 07:50:16;;;;;;;4.47;3.92;;;45.80;29.90;;;;;;4855516;29;93402;-81
2022/06/12 07:52:42;;;;;;;4.22;3.88;;;45.60;30.70;;;;;;4856886;29;91949;-79
2022/06/12 07:55:11;;;;;;;3.83;3.50;;;45.40;30.30;;;;;;4856326;29;91952;-82
2022/06/12 07:57:39;;;;;;;4.90;4.15;;;45.70;29.70;;;;;;4856402;29;91862;-81
2022/06/12 08:00:05;;;;;;;;;;;46.00;30.30;;;;;;4856351;29;93930;-81
2022/06/12 08:02:31;;;;;;;5.22;3.28;;;46.70;29.20;;;;;;4857822;29;91923;-81
2022/06/12 08:04:57;;;;;;;3.88;3.33;;;46.70;28.50;;;;;;4856278;29;91452;-80
2022/06/12 08:07:23;;;;;;;3.47;2.83;;;45.10;31.00;;;;;;4856396;29;91859;-81
2022/06/12 08:09:48;;;;;;;2.97;2.72;;;45.60;29.00;;;;;;4858975;29;92863;-81
2022/06/12 08:12:14;;;;;;;5.30;2.08;;;46.20;28.70;;;;;;4859544;29;91870;-81
2022/06/12 08:14:40;;;;;;;4.93;3.55;;;47.00;28.10;;;;;;4859468;29;91837;-81
2022/06/12 08:17:06;;;;;;;4.07;2.25;;;46.90;26.60;;;;;;4858811;29;91131;-81
2022/06/12 08:22:17;;;;;;;2.50;2.30;;;47.50;26.40;;;;;;4844664;29;92024;-81
2022/06/12 08:24:43;;;;;;;5.28;2.90;;;47.40;27.20;;;;;;4850932;29;92736;-81
2022/06/12 08:27:09;;;;;;;7.50;3.78;;;47.50;29.20;;;;;;4858529;29;91638;-81
2022/06/12 08:29:36;;;;;;;4.80;3.17;;;47.30;29.50;;;;;;4854460;29;92119;-81
2022/06/12 08:32:07;;;;;;;3.22;2.67;;;47.10;30.20;;;;;;4850137;29;93327;-82
2022/06/12 08:34:41;;;;;;;3.38;2.90;;;47.10;29.60;;;;;;4851234;29;92137;-82
2022/06/12 08:37:14;;;;;;;3.83;3.45;;;46.30;30.50;;;;;;4849476;29;92030;-82
2022/06/12 08:39:40;;;;;;;3.40;3.10;;;46.60;30.00;;;;;;4849503;29;91559;-82
2022/06/12 08:42:26;;;;;;;4.45;2.88;;;45.20;31.00;;;;;;4852796;29;91440;-81
2022/06/12 08:44:58;;;;;;;3.58;3.00;;;46.10;30.50;;;;;;4845875;29;92044;-81
2022/06/12 08:47:38;;;;;;;5.82;5.32;;;47.00;29.70;;;;;;4849500;29;92096;-81
2022/06/12 08:50:16;;;;;;;6.00;3.95;;;47.50;30.30;;;;;;4848985;29;93368;-82
2022/06/12 08:52:54;;;;;;;3.25;2.88;;;47.60;29.50;;;;;;4849661;29;92332;-82
2022/06/12 08:55:48;;;;;;;6.82;4.75;;;47.70;29.60;;;;;;4844895;29;91313;-82
2022/06/12 08:58:27;;;;;;;3.97;3.67;;;47.80;29.00;;;;;;4848962;29;92320;-82
2022/06/12 09:00:54;;;;;;;3.90;3.42;;;47.80;29.10;;;;;;4848945;29;93779;-82
2022/06/12 09:03:23;;;;;;;5.55;4.07;;;48.20;29.30;;;;;;4846735;29;94485;-82
2022/06/12 09:05:53;;;;;;;5.03;4.10;;;48.90;29.10;;;;;;4849308;29;91975;-82
2022/06/12 09:08:30;;;;;;;5.88;5.30;;;49.50;28.10;;;;;;4842862;29;91301;-81
2022/06/12 09:11:22;;;;;;;5.30;4.88;;;49.30;28.90;;;;;;4848490;29;93745;-81
2022/06/12 09:13:58;;;;;;;6.65;5.20;;;49.70;28.20;;;;;;4843472;29;92031;-82
2022/06/12 09:16:41;;;;;;;3.92;3.55;;;50.10;27.60;;;;;;4848932;29;93244;-82
2022/06/12 09:19:15;;;;;;;4.78;4.00;;;49.30;27.80;;;;;;4850240;29;92022;-82
2022/06/12 09:22:09;;;;;;;4.32;3.80;;;48.90;29.00;;;;;;4848227;29;94260;-82
2022/06/12 09:25:01;;;;;;;4.15;3.75;;;49.50;27.40;;;;;;4845659;29;93311;-82
2022/06/12 09:27:45;;;;;;;4.15;3.72;;;49.50;27.80;;;;;;4847346;29;93520;-82
2022/06/12 09:30:20;;;;;;;6.70;5.20;;;49.80;27.80;;;;;;4845044;29;92002;-82
2022/06/12 09:32:45;;;;;;;4.55;4.15;;;50.40;28.00;;;;;;4847074;29;92244;-82
2022/06/12 09:35:43;;;;;;;5.53;5.03;;;50.70;27.90;;;;;;4843930;29;93574;-82
2022/06/12 09:38:33;;;;;;;5.22;3.63;;;50.60;27.10;;;;;;4819892;29;92032;-82
2022/06/12 09:41:10;;;;;;;4.80;4.40;;;50.20;27.90;;;;;;4848459;29;91961;-82
2022/06/12 09:43:57;;;;;;;5.47;3.70;;;50.40;28.00;;;;;;4852630;29;95345;-81
2022/06/12 09:46:42;;;;;;;4.03;3.63;;;49.50;28.40;;;;;;4855368;29;93137;-82
2022/06/12 09:49:46;;;;;;;4.88;4.38;;;49.00;29.00;;;;;;4854742;29;92151;-82
2022/06/12 09:52:29;;;;;;;3.63;3.33;;;48.80;28.70;;;;;;4792553;29;92466;-82
2022/06/12 09:55:13;;;;;;;6.55;4.22;;;49.00;28.10;;;;;;4792046;29;95101;-82
2022/06/12 09:57:57;;;;;;;3.97;3.63;;;48.20;29.00;;;;;;4836687;29;92145;-82
2022/06/12 10:00:31;;;;;;;4.47;4.07;;;47.30;29.00;;;;;;4855171;29;92018;-82
2022/06/12 10:03:06;;;;;;;5.20;4.25;;;46.10;29.10;;;;;;4854207;29;91023;-82
2022/06/12 10:05:51;;;;;;;3.50;3.20;;;45.70;30.20;;;;;;4849687;29;94013;-82
2022/06/12 10:08:50;;;;;;;5.53;4.10;;;44.40;30.00;;;;;;4855407;29;92064;-82
2022/06/12 10:11:19;;;;;;;3.33;2.78;;;42.60;32.40;;;;;;4851981;29;92724;-81
2022/06/12 10:13:54;;;;;;;3.78;3.42;;;40.50;33.00;;;;;;4855949;29;92116;-82
2022/06/12 10:16:53;;;;;;;4.18;3.65;;;38.50;34.10;;;;;;4852074;29;93422;-82
2022/06/12 10:19:39;;;;;;;2.50;2.28;;;36.20;37.80;;;;;;4844462;29;93141;-81
2022/06/12 10:22:16;;;;;;;4.78;2.40;;;35.00;38.30;;;;;;4838533;29;91666;-81
2022/06/12 10:24:42;;;;;;;5.32;2.22;;;33.80;38.10;;;;;;4855022;29;91534;-81
2022/06/12 10:27:12;;;;;;;2.75;1.70;;;32.50;43.80;;;;;;4854102;29;92866;-81
2022/06/12 10:29:43;;;;;;;2.45;1.88;;;31.30;44.70;;;;;;4855032;29;91884;-81
2022/06/12 10:32:14;;;;;;;1.75;1.33;;;30.80;43.70;;;;;;4842038;29;92269;-81
2022/06/12 10:34:40;;;;;;;2.60;1.48;;;30.20;44.40;;;;;;4852999;29;91846;-81
2022/06/12 10:37:18;;;;;;;3.15;1.58;;;30.00;42.30;;;;;;4850033;29;92909;-81
2022/06/12 10:39:45;;;;;;;1.80;1.15;;;30.00;45.70;;;;;;4850954;29;93225;-80
2022/06/12 10:42:47;;;;;;;3.60;1.30;;;30.20;43.50;;;;;;4853544;29;92040;-81
2022/06/12 10:45:32;;;;;;;3.15;1.65;;;29.80;44.40;;;;;;4855575;29;92536;-81
2022/06/12 10:48:02;;;;;;;2.30;0.98;;;29.70;45.90;;;;;;4850819;29;91893;-81
2022/06/12 10:50:35;;;;;;;2.55;1.25;;;29.40;43.50;;;;;;4852991;29;91937;-81
2022/06/12 10:53:13;;;;;;;2.42;1.23;;;29.20;46.40;;;;;;4847393;29;92004;-82
2022/06/12 10:55:47;;;;;;;3.85;0.88;;;29.20;45.80;;;;;;4850058;29;91198;-81
2022/06/12 10:58:25;;;;;;;2.60;0.93;;;29.00;47.00;;;;;;4849554;29;94426;-81
2022/06/12 11:00:54;;;;;;;2.55;1.33;;;28.70;46.20;;;;;;4850211;29;92225;-81
2022/06/12 11:03:48;;;;;;;1.27;0.55;;;28.70;47.10;;;;;;4849534;29;93066;-81
2022/06/12 11:06:22;;;;;;;2.58;0.82;;;28.30;45.50;;;;;;4850619;29;92110;-81
2022/06/12 11:09:22;;;;;;;1.30;0.65;;;28.10;48.10;;;;;;4847425;29;91810;-80
2022/06/12 11:12:01;;;;;;;2.88;0.50;;;28.40;47.20;;;;;;4815617;29;93385;-81
2022/06/12 11:14:43;;;;;;;2.03;0.70;;;28.80;46.10;;;;;;4844886;29;91898;-81
2022/06/12 11:17:38;;;;;;;2.72;0.88;;;28.50;47.10;;;;;;4852339;29;92075;-81
2022/06/12 11:20:30;;;;;;;4.40;1.00;;;28.70;47.30;;;;;;4848468;29;94336;-81
2022/06/12 11:23:18;;;;;;;2.33;0.73;;;28.40;49.20;;;;;;4847116;29;91870;-81
2022/06/12 11:25:52;;;;;;;2.00;0.90;;;28.50;49.50;;;;;;4847311;29;92119;-81
2022/06/12 11:28:45;;;;;;;4.30;1.05;;;28.20;48.30;;;;;;4847059;29;91448;-81
2022/06/12 11:31:14;;;;;;;1.33;0.50;;;28.00;47.60;;;;;;4852600;29;92960;-81
2022/06/12 11:33:51;;;;;;;1.77;0.60;;;28.10;47.40;;;;;;4851441;29;93185;-82
2022/06/12 11:36:48;;;;;;;1.80;0.73;;;28.10;47.90;;;;;;4846133;29;92928;-81
2022/06/12 11:39:37;;;;;;;2.30;0.88;;;28.10;48.20;;;;;;4847556;29;92345;-81
2022/06/12 11:42:43;;;;;;;1.85;0.90;;;28.20;48.50;;;;;;4845495;29;91767;-81
2022/06/12 11:45:24;;;;;;;2.55;1.15;;;28.20;46.90;;;;;;4827436;29;92671;-81
2022/06/12 11:48:11;;;;;;;2.45;1.33;;;28.10;51.50;;;;;;4856530;29;91500;-81
2022/06/12 11:50:46;;;;;;;3.13;0.73;;;28.20;49.20;;;;;;4845812;29;91409;-81
2022/06/12 11:53:36;;;;;;;2.17;1.08;;;28.20;50.20;;;;;;4845938;29;91525;-81
2022/06/12 11:56:22;;;;;;;3.08;0.93;;;28.30;47.60;;;;;;4844971;29;93434;-84
2022/06/12 11:58:55;;;;;;;2.50;0.82;;;28.30;48.90;;;;;;4846392;29;92533;-83
2022/06/12 12:01:53;;;;;;;2.08;1.00;;;28.10;49.60;;;;;;4846359;29;92234;-81
2022/06/12 12:04:44;;;;;;;1.70;0.70;;;28.10;49.50;;;;;;4832618;29;92661;-81
2022/06/12 12:07:18;;;;;;;1.73;0.95;;;27.90;48.80;;;;;;4839206;29;93066;-81
2022/06/12 12:09:55;;;;;;;2.67;0.80;;;27.90;49.30;;;;;;4845360;29;91725;-81
2022/06/12 12:12:26;;;;;;;2.15;0.95;;;28.10;48.00;;;;;;4845932;29;92090;-81
2022/06/12 12:14:54;;;;;;;2.05;0.82;;;28.10;48.80;;;;;;4844765;29;92232;-81
2022/06/12 12:17:27;;;;;;;2.15;0.63;;;28.00;48.80;;;;;;4845126;29;92033;-81
2022/06/12 12:20:04;;;;;;;1.30;0.80;;;28.00;47.60;;;;;;4843928;29;91976;-81
2022/06/12 12:22:39;;;;;;;1.33;0.55;;;28.00;46.90;;;;;;4838669;29;91933;-81
2022/06/12 12:25:17;;;;;;;1.42;0.52;;;27.90;46.90;;;;;;4844565;29;92975;-81
2022/06/12 12:27:49;;;;;;;1.33;0.60;;;28.20;49.00;;;;;;4846275;29;93909;-83
2022/06/12 12:30:29;;;;;;;1.05;0.80;;;28.40;47.70;;;;;;4844868;29;92049;-83
2022/06/12 12:32:58;;;;;;;1.65;0.60;;;28.20;45.80;;;;;;4844649;29;92090;-83
2022/06/12 12:41:13;;;;;;;1.42;0.63;;;28.10;47.00;;;;;;4845469;29;91870;-83
2022/06/12 12:43:52;;;;;;;2.17;0.80;;;28.10;50.10;;;;;;4840173;29;91324;-81
2022/06/12 12:46:19;;;;;;;2.58;0.75;;;28.20;45.40;;;;;;4844544;29;92021;-81
2022/06/12 12:48:49;;;;;;;1.60;0.80;;;28.20;47.60;;;;;;4842976;29;92077;-83
2022/06/12 12:51:26;;;;;;;1.35;0.85;;;28.10;46.50;;;;;;4843183;29;92889;-83
2022/06/12 12:53:52;;;;;;;1.10;0.50;;;28.20;45.90;;;;;;4844483;29;92357;-83
2022/06/12 12:56:30;;;;;;;1.17;0.57;;;28.30;44.20;;;;;;4843671;29;92444;-83
2022/06/12 12:59:04;;;;;;;3.30;0.85;;;28.20;43.20;;;;;;4837628;29;91967;-83
2022/06/12 13:01:37;;;;;;;1.60;0.47;;;28.10;45.20;;;;;;4836839;29;92265;-83
2022/06/12 13:04:16;;;;;;;0.85;0.43;;;28.20;44.60;;;;;;4843861;29;92162;-84
2022/06/12 13:07:03;;;;;;;1.52;0.52;;;28.40;42.20;;;;;;4842631;29;93181;-83
2022/06/12 13:09:29;;;;;;;1.65;0.77;;;28.30;42.50;;;;;;4842596;29;92356;-81
2022/06/12 13:12:08;;;;;;;2.30;0.80;;;28.30;42.60;;;;;;4842381;29;92029;-80
2022/06/12 13:15:10;;;;;;;1.00;0.63;;;28.40;45.30;;;;;;4837578;29;91707;-85
2022/06/12 13:17:44;;;;;;;1.48;0.63;;;28.50;44.40;;;;;;4840742;29;93360;-84
2022/06/12 13:20:25;;;;;;;1.38;0.32;;;28.50;45.30;;;;;;4842162;29;92861;-81
2022/06/12 13:23:18;;;;;;;2.42;0.77;;;28.60;44.80;;;;;;4843584;29;92060;-82
2022/06/12 13:25:47;;;;;;;2.00;0.80;;;28.50;44.50;;;;;;4847372;29;92179;-83
2022/06/12 13:28:30;;;;;;;1.42;0.63;;;28.40;41.50;;;;;;4842363;29;92726;-82
2022/06/12 13:30:57;;;;;;;1.63;0.40;;;28.60;44.10;;;;;;4840680;29;93104;-82
2022/06/12 13:33:28;;;;;;;1.08;0.45;;;28.70;41.20;;;;;;4842781;29;91994;-83
2022/06/12 13:35:56;;;;;;;1.73;0.40;;;28.70;39.10;;;;;;4842150;29;91415;-83
2022/06/12 13:38:59;;;;;;;2.83;0.50;;;28.60;43.70;;;;;;4840634;29;91976;-84
2022/06/12 13:41:46;;;;;;;1.27;0.63;;;28.70;41.10;;;;;;4788417;29;93246;-84
2022/06/12 13:44:31;;;;;;;1.10;0.50;;;28.50;43.80;;;;;;4839841;29;92997;-83
2022/06/12 13:47:01;;;;;;;1.40;0.43;;;28.60;41.50;;;;;;4837649;29;92126;-83
2022/06/12 13:49:44;;;;;;;1.40;0.63;;;28.70;42.60;;;;;;4841529;29;94191;-83
2022/06/12 13:52:25;;;;;;;0.80;0.40;;;28.80;42.80;;;;;;4841057;29;91930;-83
2022/06/12 13:54:51;;;;;;;0.90;0.32;;;28.80;40.80;;;;;;4839495;29;92138;-83
2022/06/12 13:57:33;;;;;;;2.97;0.30;;;28.80;40.70;;;;;;4841409;29;91664;-83
2022/06/12 14:00:00;;;;;;;1.17;0.50;;;28.90;40.20;;;;;;4833101;29;92319;-83
2022/06/12 14:02:43;;;;;;;5.72;0.43;;;28.90;40.10;;;;;;4840149;29;91959;-84
2022/06/12 14:05:22;;;;;;;1.60;0.63;;;29.00;38.20;;;;;;4837652;29;92090;-83
2022/06/12 14:07:50;;;;;;;2.10;0.28;;;29.00;38.70;;;;;;4839129;29;92516;-83
2022/06/12 14:10:46;;;;;;;2.95;0.52;;;29.00;38.30;;;;;;4830674;29;94266;-83
2022/06/12 14:13:25;;;;;;;1.48;0.30;;;29.10;37.30;;;;;;4829755;29;94889;-83
2022/06/12 14:15:51;;;;;;;2.00;0.50;;;29.10;37.00;;;;;;4836892;29;92146;-82
2022/06/12 14:18:29;;;;;;;0.75;0.22;;;29.20;38.80;;;;;;4833925;29;92110;-83
2022/06/12 14:21:19;;;;;;;1.25;0.43;;;29.20;35.70;;;;;;4832946;29;92281;-83
2022/06/12 14:23:49;;;;;;;4.00;0.52;;;29.00;35.90;;;;;;4832237;29;92567;-83
2022/06/12 14:26:24;;;;;;;1.42;0.93;;;28.90;37.30;;;;;;4846371;29;91975;-83
2022/06/12 14:28:50;;;;;;;2.40;0.80;;;29.10;37.10;;;;;;4848043;29;91734;-82
2022/06/12 14:31:15;;;;;;;2.38;0.70;;;29.30;41.00;;;;;;4848802;29;92060;-83
2022/06/12 14:34:04;;;;;;;1.58;0.73;;;29.70;37.70;;;;;;4846692;29;92058;-83
2022/06/12 14:36:48;;;;;;;2.90;0.32;;;29.70;35.50;;;;;;4846167;29;92966;-83
2022/06/12 14:39:24;;;;;;;1.98;0.43;;;29.90;36.20;;;;;;4844545;29;92881;-83
2022/06/12 14:41:55;;;;;;;1.50;0.85;;;29.60;35.80;;;;;;4847080;29;92264;-83
2022/06/12 14:44:26;;;;;;;1.30;0.63;;;29.50;34.80;;;;;;4842429;29;92343;-83
2022/06/12 14:46:53;;;;;;;2.33;0.40;;;29.30;35.80;;;;;;4846713;29;92902;-83
2022/06/12 14:49:22;;;;;;;1.23;0.82;;;29.50;37.70;;;;;;4846525;29;92419;-83
2022/06/12 14:51:52;;;;;;;0.80;0.65;;;29.80;36.80;;;;;;4845899;29;92804;-83
2022/06/12 14:54:18;;;;;;;1.98;0.38;;;30.00;38.20;;;;;;4840039;29;92012;-83
2022/06/12 14:56:46;;;;;;;1.40;0.52;;;29.90;37.60;;;;;;4846698;29;92224;-83
2022/06/12 14:59:19;;;;;;;2.75;0.50;;;30.00;36.40;;;;;;4845343;29;91846;-83
2022/06/12 15:01:45;;;;;;;2.08;0.80;;;29.70;37.60;;;;;;4842942;29;94646;-83
2022/06/12 15:04:11;;;;;;;0.73;0.52;;;29.80;38.70;;;;;;4845775;29;93717;-83
2022/06/12 15:06:37;;;;;;;1.52;0.47;;;29.60;39.10;;;;;;4842652;29;92141;-83
2022/06/12 15:09:04;;;;;;;1.00;0.60;;;29.60;37.70;;;;;;4846239;29;92105;-83
2022/06/12 15:11:31;;;;;;;1.55;0.50;;;29.50;39.30;;;;;;4841347;29;93704;-82
2022/06/12 15:13:57;;;;;;;2.00;0.40;;;29.60;38.50;;;;;;4845865;29;92222;-83
2022/06/12 15:16:25;;;;;;;1.25;0.40;;;29.40;39.40;;;;;;4845828;29;92103;-83
2022/06/12 15:18:51;;;;;;;0.77;0.30;;;29.30;36.50;;;;;;4846790;29;90868;-83
2022/06/12 15:21:27;;;;;;;1.80;0.60;;;29.30;34.50;;;;;;4845635;29;95576;-83
2022/06/12 15:23:54;;;;;;;0.70;0.40;;;29.20;35.90;;;;;;4845252;29;92782;-83
2022/06/12 15:31:51;;;;;;;1.00;0.60;;;29.20;36.90;;;;;;4844727;29;92092;-83
2022/06/12 15:34:17;;;;;;;2.67;0.52;;;29.10;37.60;;;;;;4847167;29;92416;-83
2022/06/12 15:36:43;;;;;;;1.70;0.47;;;29.10;36.70;;;;;;4845907;29;92344;-83
2022/06/12 15:39:09;;;;;;;1.58;0.43;;;29.00;37.20;;;;;;4845153;29;92033;-83
2022/06/12 15:41:36;;;;;;;1.55;0.35;;;29.00;36.50;;;;;;4844439;29;92980;-83
2022/06/12 15:44:03;;;;;;;1.23;0.40;;;29.00;37.00;;;;;;4845587;29;94874;-83
2022/06/12 15:46:29;;;;;;;1.70;0.85;;;28.90;37.30;;;;;;4846289;29;92476;-83
2022/06/12 15:48:56;;;;;;;1.63;0.63;;;28.90;40.30;;;;;;4845175;29;92050;-83
2022/06/12 15:51:22;;;;;;;2.95;0.52;;;29.00;38.10;;;;;;4844160;29;94993;-83
2022/06/12 15:53:49;;;;;;;1.25;0.50;;;28.90;40.00;;;;;;4845266;29;93735;-83
2022/06/12 15:56:17;;;;;;;3.78;0.77;;;28.90;41.70;;;;;;4845236;29;91990;-83
2022/06/12 15:58:43;;;;;;;1.17;0.40;;;29.00;42.10;;;;;;4844359;29;92062;-83
2022/06/12 16:01:19;;;;;;;1.13;0.57;;;29.00;41.70;;;;;;4844616;29;93696;-83
2022/06/12 16:03:45;;;;;;;1.50;0.52;;;28.90;40.90;;;;;;4843227;29;92343;-83
2022/06/12 16:06:12;;;;;;;1.88;0.60;;;28.90;40.10;;;;;;4845166;29;91951;-83
2022/06/12 16:08:38;;;;;;;1.40;0.70;;;28.80;41.30;;;;;;4845668;29;91366;-83
2022/06/12 16:11:03;;;;;;;3.45;0.63;;;29.00;39.70;;;;;;4842050;29;91981;-83
2022/06/12 16:13:29;;;;;;;1.15;0.63;;;29.00;41.60;;;;;;4844623;29;91729;-83
2022/06/12 16:15:56;;;;;;;1.27;0.60;;;28.80;40.80;;;;;;4845115;29;93180;-83
2022/06/12 16:18:22;;;;;;;1.98;0.82;;;28.80;39.00;;;;;;4844850;29;92164;-83
2022/06/12 16:20:49;;;;;;;1.08;0.45;;;28.80;39.30;;;;;;4844771;29;92247;-83
2022/06/12 16:23:16;;;;;;;1.08;0.47;;;28.80;39.10;;;;;;4844562;29;91957;-83
2022/06/12 16:25:46;;;;;;;1.63;1.00;;;28.80;40.00;;;;;;4844757;29;92459;-83
2022/06/12 16:28:12;;;;;;;1.67;0.43;;;28.70;40.00;;;;;;4844731;29;91956;-83
2022/06/12 16:30:38;;;;;;;2.03;0.50;;;28.70;40.50;;;;;;4843921;29;94920;-83
2022/06/12 16:33:03;;;;;;;1.35;0.55;;;28.70;39.50;;;;;;4845078;29;91216;-83
2022/06/12 16:35:29;;;;;;;1.88;0.50;;;28.70;39.90;;;;;;4844707;29;92154;-83
2022/06/12 16:37:55;;;;;;;2.55;0.63;;;28.70;41.10;;;;;;4843474;29;92768;-83
2022/06/12 16:40:20;;;;;;;1.48;0.50;;;28.70;39.50;;;;;;4843749;29;93240;-83
2022/06/12 16:42:46;;;;;;;1.63;0.63;;;28.80;40.10;;;;;;4843796;29;93310;-83
2022/06/12 16:45:13;;;;;;;1.60;0.65;;;28.70;39.30;;;;;;4844931;29;92160;-83
2022/06/12 16:47:40;;;;;;;1.33;0.55;;;28.60;40.10;;;;;;4845005;29;92085;-83
2022/06/12 16:50:07;;;;;;;1.98;0.40;;;28.60;39.00;;;;;;4843758;29;93436;-83
2022/06/12 16:52:33;;;;;;;1.63;0.55;;;28.60;40.00;;;;;;4843365;29;92000;-83
2022/06/12 16:54:59;;;;;;;4.25;0.60;;;28.60;39.60;;;;;;4838678;29;92074;-83
2022/06/12 16:57:27;;;;;;;2.60;0.52;;;28.50;39.10;;;;;;4845532;29;91359;-83
2022/06/12 16:59:54;;;;;;;1.45;0.68;;;28.50;40.80;;;;;;4843280;29;92529;-83
2022/06/12 17:02:24;;;;;;;2.08;0.55;;;28.50;41.10;;;;;;4849098;29;91979;-83
2022/06/12 17:04:50;;;;;;;1.50;0.63;;;28.60;41.40;;;;;;4869022;29;92783;-83
2022/06/12 17:07:19;;;;;;;1.80;0.60;;;28.50;41.00;;;;;;4850560;29;92073;-82
2022/06/12 17:09:46;;;;;;;2.75;0.52;;;28.50;40.80;;;;;;4853325;28;91985;-82
2022/06/12 17:12:16;;;;;;;1.80;0.55;;;28.60;40.00;;;;;;4848876;28;92134;-82
2022/06/12 17:14:43;;;;;;;2.00;0.40;;;28.50;39.40;;;;;;4850900;29;91689;-83
2022/06/12 17:17:10;;;;;;;2.35;0.73;;;28.50;40.00;;;;;;4843456;29;92535;-83
2022/06/12 17:22:22;;;;;;;1.83;0.52;;;28.60;40.00;;;;;;4839794;29;91240;-83
2022/06/12 17:24:48;;;;;;;1.05;0.52;;;28.60;39.50;;;;;;4843400;29;92289;-83
2022/06/12 17:27:14;;;;;;;1.23;0.70;;;28.60;40.50;;;;;;4842734;29;92097;-83
2022/06/12 17:29:40;;;;;;;2.63;0.57;;;28.60;40.80;;;;;;4841813;29;96167;-83
2022/06/12 17:32:06;;;;;;;1.20;0.63;;;28.60;40.70;;;;;;4842977;29;93072;-83
2022/06/12 17:34:32;;;;;;;0.93;0.75;;;28.60;40.90;;;;;;4842426;29;91466;-83